Statisk karta - kartvy · info · telemetri · väder · rådata · status · furar · meddelanden · bulletiner · bläddra · rörliga · mitt konto
Anrop, fartyg eller lokator: Töm       
Denna sida visar positioner på en statisk karta. Den är gjord för att ge maximal kompatibiltet med mobila enheter och gamla webbläsare. Denna karta uppdateras inte automatiskt. Ladda om sidan för att få en uppdaterad vy. Här kan du söka flera anrop åtskilda med komma. Exempel: Rautauoma,OH2RDK
1: LEEL 43°32.98' N 5°41.72' W - IN73DN61NW
Static map showing the positions
Zoom: 2 4 6 7 8 9 10 11 12 13 14
1: LEEL - 43°32.98' N 5°41.72' W - IN73DN61NW
Kommentar: Helipuerto de El Musel: LEAS 121730Z 07007KT 020V120 9999 FEW017 SCT020 21/17 Q1022 NOSIG=
Plats: 43°32.98' N 5°41.72' W - position IN73DN61NW - Visa karta - statisk karta
1.9 miles mot nordväst bäring 300° från Gijón, Provincia de Asturias, Asturias, Spain [?]
6.7 miles mot sydost bäring 133° från Luanco, Provincia de Asturias, Asturias, Spain
15.1 miles mot nordost bäring 30° från Oviedo, Provincia de Asturias, Asturias, Spain
Senaste position: 2020-07-12 14:00:25 EDT (29m1s sedan)
2020-07-12 20:00:25 CEST lokal tid vid Gijón, Spain [?]
Höjd: 10 ft
User guide · FAQ · Blogg · Diskussionsgrupp · Att länka till aprs.fi · AIS-positioner · Tjänstens status · Databasstatistik · Gör reklam på aprs.fi · Tekniska detaljer · API · Ändra logg · Planerade ändringar · Ära och tack · Användarvillkor · iPhone/iPad APRS